Time;durP1;ratioP1;P1;durP2;ratioP2;P2;SDS_P1;SDS_P2;PMS_P1;PMS_P2;Temp;Humidity;BMP_temperature;BMP_pressure;BME280_temperature;BME280_humidity;BME280_pressure;Samples;Min_cycle;Max_cycle;Signal;HPM_P1;HPM_P2
2023/10/30 00:03:58;;;;;;;4.60;4.30;;;14.30;99.90;;;;;;10485324;28;20204;-79
2023/10/30 00:09:20;;;;;;;3.90;3.77;;;14.30;99.90;;;;;;10462577;28;20561;-79
2023/10/30 00:14:42;;;;;;;3.80;3.60;;;14.30;99.90;;;;;;10489742;28;20334;-79
2023/10/30 00:20:07;;;;;;;4.10;3.83;;;14.30;99.90;;;;;;10456825;28;20193;-79
2023/10/30 00:25:29;;;;;;;4.80;4.50;;;14.40;99.90;;;;;;10445658;28;20216;-80
2023/10/30 00:30:53;;;;;;;4.13;3.93;;;14.40;99.90;;;;;;10442650;28;20199;-80
2023/10/30 00:36:16;;;;;;;4.17;3.97;;;14.40;99.90;;;;;;10477248;28;20228;-79
2023/10/30 00:41:38;;;;;;;4.60;4.30;;;14.40;99.90;;;;;;10440476;28;20594;-79
2023/10/30 00:47:00;;;;;;;4.30;4.10;;;14.40;99.90;;;;;;10473070;28;20225;-79
2023/10/30 00:52:24;;;;;;;4.33;4.13;;;14.40;99.90;;;;;;10466998;28;20204;-79
2023/10/30 00:57:46;;;;;;;4.27;4.07;;;14.50;99.90;;;;;;10473330;28;20214;-79
2023/10/30 01:03:09;;;;;;;4.20;3.90;;;14.50;99.90;;;;;;10476338;28;20221;-80
2023/10/30 01:08:32;;;;;;;3.50;3.40;;;14.50;99.90;;;;;;10470202;28;20197;-79
2023/10/30 01:13:54;;;;;;;4.37;3.97;;;14.60;99.90;;;;;;10469595;28;20213;-79
2023/10/30 01:19:17;;;;;;;3.87;3.67;;;14.50;99.90;;;;;;10465358;28;20203;-80
2023/10/30 01:24:40;;;;;;;3.70;3.50;;;14.60;99.90;;;;;;10489647;28;20635;-79
2023/10/30 01:30:03;;;;;;;4.27;4.07;;;14.50;99.90;;;;;;10461401;28;20209;-79
2023/10/30 01:35:26;;;;;;;3.47;3.30;;;14.60;99.90;;;;;;10487501;28;20225;-78
2023/10/30 01:40:50;;;;;;;5.07;4.77;;;14.60;99.90;;;;;;10465841;28;20251;-79
2023/10/30 01:46:12;;;;;;;4.23;3.93;;;14.60;99.90;;;;;;10491751;28;20617;-79
2023/10/30 01:51:35;;;;;;;4.17;3.87;;;14.60;99.90;;;;;;10461269;28;20212;-79
2023/10/30 01:56:58;;;;;;;4.17;3.87;;;14.60;99.90;;;;;;10484441;28;20228;-80
2023/10/30 02:02:21;;;;;;;4.17;3.97;;;14.70;99.90;;;;;;10438753;28;20279;-80
2023/10/30 02:07:44;;;;;;;4.10;3.90;;;14.70;99.90;;;;;;10483352;28;20186;-80
2023/10/30 02:13:08;;;;;;;3.80;3.60;;;14.70;99.90;;;;;;10464683;28;20306;-80
2023/10/30 02:18:30;;;;;;;4.00;3.73;;;14.60;99.90;;;;;;10472256;28;20224;-79
2023/10/30 02:23:54;;;;;;;4.30;4.10;;;14.60;99.90;;;;;;10452836;28;20217;-79
2023/10/30 02:29:18;;;;;;;3.87;3.77;;;14.60;99.90;;;;;;10469815;28;20194;-80
2023/10/30 02:34:40;;;;;;;4.30;4.10;;;14.50;99.90;;;;;;10451480;28;20724;-79
2023/10/30 02:40:02;;;;;;;4.43;4.23;;;14.40;99.90;;;;;;10463972;28;20211;-79
2023/10/30 02:45:26;;;;;;;4.43;4.17;;;14.40;99.90;;;;;;10472273;28;20702;-80
2023/10/30 02:50:48;;;;;;;4.47;4.27;;;14.30;99.90;;;;;;10459429;28;20745;-79
2023/10/30 02:56:10;;;;;;;5.03;4.83;;;14.20;99.90;;;;;;10480034;28;20221;-79
2023/10/30 03:01:34;;;;;;;4.57;4.27;;;14.20;99.90;;;;;;10456049;28;20213;-79
2023/10/30 03:06:58;;;;;;;5.00;4.77;;;14.20;99.90;;;;;;10487475;28;20315;-79
2023/10/30 03:12:20;;;;;;;5.70;5.40;;;14.10;99.90;;;;;;10448511;28;20307;-79
2023/10/30 03:17:45;;;;;;;4.80;4.60;;;14.10;99.90;;;;;;10492377;28;20225;-79
2023/10/30 03:23:07;;;;;;;5.40;5.00;;;14.10;99.90;;;;;;10443705;28;20225;-80
2023/10/30 03:28:29;;;;;;;5.27;4.97;;;14.20;99.90;;;;;;10457610;28;20198;-79
2023/10/30 03:33:53;;;;;;;5.23;4.93;;;14.20;99.90;;;;;;10455488;28;20226;-80
2023/10/30 03:39:15;;;;;;;5.07;4.80;;;14.30;99.90;;;;;;10478232;28;20197;-80
2023/10/30 03:44:39;;;;;;;4.77;4.60;;;14.30;99.90;;;;;;10440767;28;20252;-80
2023/10/30 03:50:02;;;;;;;5.37;5.07;;;14.30;99.90;;;;;;10490611;28;20204;-80
2023/10/30 03:55:25;;;;;;;5.07;4.87;;;14.20;99.90;;;;;;10465383;28;20225;-80
2023/10/30 04:00:47;;;;;;;4.80;4.60;;;14.20;99.90;;;;;;10484642;28;20208;-79
2023/10/30 04:06:10;;;;;;;5.47;5.20;;;14.20;99.90;;;;;;10470315;28;20217;-80
2023/10/30 04:11:33;;;;;;;5.23;5.03;;;14.10;99.90;;;;;;10479351;28;20611;-79
2023/10/30 04:16:55;;;;;;;4.67;4.47;;;14.10;99.90;;;;;;10477367;28;20221;-79
2023/10/30 04:22:19;;;;;;;5.10;4.90;;;14.00;99.90;;;;;;10472967;28;20209;-80
2023/10/30 04:27:41;;;;;;;5.67;5.37;;;14.00;99.90;;;;;;10490304;28;20831;-79
2023/10/30 04:33:04;;;;;;;4.80;4.60;;;13.90;99.90;;;;;;10475574;28;20225;-79
2023/10/30 04:38:27;;;;;;;5.00;4.80;;;13.80;99.90;;;;;;10487972;28;20213;-80
2023/10/30 04:43:49;;;;;;;4.63;4.33;;;13.80;99.90;;;;;;10472288;28;20229;-79
2023/10/30 04:49:11;;;;;;;4.90;4.70;;;13.80;99.90;;;;;;10494251;28;20193;-79
2023/10/30 04:54:35;;;;;;;4.53;4.33;;;13.80;99.90;;;;;;10462226;28;20216;-79
2023/10/30 04:59:57;;;;;;;4.50;4.30;;;13.70;99.90;;;;;;10499771;28;20197;-79
2023/10/30 05:05:19;;;;;;;4.80;4.50;;;13.70;99.90;;;;;;10463226;28;20221;-79
2023/10/30 05:10:43;;;;;;;4.93;4.73;;;13.70;99.90;;;;;;10500686;28;20293;-79
2023/10/30 05:16:06;;;;;;;6.30;4.63;;;13.80;99.90;;;;;;10463704;28;20225;-79
2023/10/30 05:21:28;;;;;;;4.80;4.60;;;13.80;99.90;;;;;;10475921;28;20205;-78
2023/10/30 05:26:52;;;;;;;4.83;4.57;;;13.90;99.90;;;;;;10448939;28;20213;-79
2023/10/30 05:32:14;;;;;;;4.60;4.40;;;13.90;99.90;;;;;;10485375;28;20208;-79
2023/10/30 05:37:36;;;;;;;4.30;4.10;;;13.80;99.90;;;;;;10469273;28;20232;-79
2023/10/30 05:43:00;;;;;;;4.80;4.60;;;13.70;99.90;;;;;;10480462;28;20237;-79
2023/10/30 05:48:22;;;;;;;5.43;5.13;;;13.60;99.90;;;;;;10472304;28;20200;-79
2023/10/30 05:53:44;;;;;;;6.30;5.93;;;13.60;99.90;;;;;;10472345;28;20568;-78
2023/10/30 05:59:08;;;;;;;6.50;6.13;;;13.50;99.90;;;;;;10457980;28;20592;-79
2023/10/30 06:04:30;;;;;;;7.07;6.47;;;13.50;99.90;;;;;;10483171;28;20221;-80
2023/10/30 06:09:53;;;;;;;7.33;6.93;;;13.40;99.90;;;;;;10500318;28;20200;-80
2023/10/30 06:15:17;;;;;;;6.60;6.20;;;13.40;99.90;;;;;;10463667;28;20303;-78
2023/10/30 06:20:39;;;;;;;8.50;7.90;;;13.40;99.90;;;;;;10492658;28;20208;-80
2023/10/30 06:26:08;;;;;;;8.07;7.47;;;13.30;99.90;;;;;;10460653;28;20217;-79
2023/10/30 06:31:32;;;;;;;7.70;7.20;;;13.30;99.90;;;;;;10454388;28;20200;-79
2023/10/30 06:36:54;;;;;;;8.40;7.60;;;13.30;99.90;;;;;;10459506;28;20823;-80
2023/10/30 06:42:16;;;;;;;6.73;6.20;;;13.30;99.90;;;;;;10460770;28;20600;-80
2023/10/30 06:47:40;;;;;;;7.40;6.70;;;13.40;99.90;;;;;;10458691;28;20190;-79
2023/10/30 06:53:02;;;;;;;9.30;8.50;;;13.40;99.90;;;;;;10489727;28;20228;-81
2023/10/30 06:58:24;;;;;;;7.77;7.17;;;13.40;99.90;;;;;;10470597;28;20228;-80
2023/10/30 07:03:47;;;;;;;9.90;9.10;;;13.40;99.90;;;;;;10486435;28;20214;-80
2023/10/30 07:09:10;;;;;;;8.13;7.53;;;13.50;99.90;;;;;;10471515;28;20232;-81
2023/10/30 07:14:32;;;;;;;8.87;7.70;;;13.50;99.90;;;;;;10482024;28;20216;-81
2023/10/30 07:19:56;;;;;;;8.37;7.87;;;13.50;99.90;;;;;;10476077;28;20193;-80
2023/10/30 07:25:18;;;;;;;9.27;8.47;;;13.50;99.90;;;;;;10471973;28;20721;-80
2023/10/30 07:30:40;;;;;;;10.60;9.60;;;13.50;99.90;;;;;;10475380;28;20563;-80
2023/10/30 07:36:05;;;;;;;13.83;11.33;;;13.60;99.90;;;;;;10469670;28;20217;-80
2023/10/30 07:41:27;;;;;;;23.83;15.60;;;13.60;99.90;;;;;;10476130;28;20205;-80
2023/10/30 07:46:49;;;;;;;10.43;9.50;;;13.60;99.90;;;;;;10461916;28;20299;-80
2023/10/30 07:52:13;;;;;;;8.20;7.50;;;13.60;99.90;;;;;;10485225;28;20199;-80
2023/10/30 07:57:35;;;;;;;18.00;14.40;;;13.60;99.90;;;;;;10439079;28;20218;-80
2023/10/30 08:02:58;;;;;;;16.93;13.80;;;13.60;99.90;;;;;;10498191;28;20220;-80
2023/10/30 08:08:22;;;;;;;11.93;8.57;;;13.70;99.90;;;;;;10464030;28;20240;-80
2023/10/30 08:13:45;;;;;;;9.80;8.93;;;13.70;99.90;;;;;;10496925;28;20691;-80
2023/10/30 08:19:07;;;;;;;9.63;8.60;;;13.70;99.90;;;;;;10455140;28;20232;-80
2023/10/30 08:24:31;;;;;;;9.17;8.40;;;13.80;99.90;;;;;;10499106;28;20637;-80
2023/10/30 08:29:53;;;;;;;8.63;7.73;;;13.80;99.90;;;;;;10467717;28;20220;-80
2023/10/30 08:35:15;;;;;;;7.90;7.20;;;13.90;99.90;;;;;;10477684;28;20222;-80
2023/10/30 08:40:39;;;;;;;8.53;7.90;;;14.00;99.90;;;;;;10476253;28;20226;-80
2023/10/30 08:46:01;;;;;;;10.37;9.37;;;14.10;99.90;;;;;;10471515;28;20232;-80
2023/10/30 08:51:23;;;;;;;7.17;6.57;;;14.10;99.90;;;;;;10480905;28;20491;-81
2023/10/30 08:56:47;;;;;;;8.80;8.10;;;14.20;99.90;;;;;;10489286;28;20228;-80
2023/10/30 09:02:09;;;;;;;9.37;7.13;;;14.30;99.90;;;;;;10486292;28;20601;-81
2023/10/30 09:07:32;;;;;;;7.60;7.10;;;14.30;99.90;;;;;;10477329;28;20733;-80
2023/10/30 09:12:55;;;;;;;7.47;6.87;;;14.40;99.90;;;;;;10489942;28;20240;-81
2023/10/30 09:18:17;;;;;;;7.13;6.53;;;14.40;99.90;;;;;;10471019;28;20758;-80
2023/10/30 09:23:42;;;;;;;6.60;6.00;;;14.50;99.90;;;;;;10498296;28;20231;-81
2023/10/30 09:29:06;;;;;;;7.63;6.97;;;14.50;99.90;;;;;;10466016;28;20202;-80
2023/10/30 09:34:28;;;;;;;7.63;7.13;;;14.60;99.90;;;;;;10493824;28;20233;-80
2023/10/30 09:39:51;;;;;;;7.30;6.70;;;14.60;99.90;;;;;;10458296;28;20233;-80
2023/10/30 09:45:17;;;;;;;7.27;6.77;;;14.80;99.90;;;;;;10468983;28;20226;-80
2023/10/30 09:50:40;;;;;;;6.80;6.20;;;14.80;99.90;;;;;;10462760;28;20667;-81
2023/10/30 09:56:03;;;;;;;6.13;5.67;;;14.90;99.90;;;;;;10493969;28;20221;-79
2023/10/30 10:01:27;;;;;;;5.77;5.07;;;15.10;99.90;;;;;;10472243;28;20200;-78
2023/10/30 10:06:51;;;;;;;11.13;4.63;;;15.20;99.90;;;;;;10484080;28;20209;-81
2023/10/30 10:12:23;;;;;;;4.83;4.53;;;15.40;99.90;;;;;;10472401;28;20193;-80
2023/10/30 10:17:48;;;;;;;6.60;6.10;;;15.50;99.90;;;;;;10478562;28;20213;-80
2023/10/30 10:23:20;;;;;;;5.90;5.50;;;15.50;99.90;;;;;;10479980;28;20248;-81
2023/10/30 10:28:43;;;;;;;4.57;4.13;;;15.50;99.90;;;;;;10475036;28;20191;-81
2023/10/30 10:34:07;;;;;;;4.93;4.57;;;15.50;99.90;;;;;;10480529;28;20311;-80
2023/10/30 10:39:46;;;;;;;4.10;3.80;;;15.60;99.90;;;;;;10468792;28;20217;-81
2023/10/30 10:45:09;;;;;;;4.30;4.03;;;15.70;99.90;;;;;;10489906;28;20603;-81
2023/10/30 10:50:34;;;;;;;4.17;3.97;;;15.80;99.90;;;;;;10465294;28;20205;-81
2023/10/30 10:56:04;;;;;;;3.83;3.53;;;15.90;99.90;;;;;;10453732;28;20256;-80
2023/10/30 11:01:32;;;;;;;2.83;2.53;;;16.10;99.90;;;;;;10480685;28;20290;-81
2023/10/30 11:07:00;;;;;;;3.23;3.03;;;16.20;99.90;;;;;;10463781;28;20217;-81
2023/10/30 11:12:41;;;;;;;3.70;3.40;;;16.20;99.90;;;;;;10483611;28;20201;-80
2023/10/30 11:18:18;;;;;;;3.87;3.57;;;16.30;99.90;;;;;;10477329;28;20221;-80
2023/10/30 11:23:57;;;;;;;2.30;2.20;;;16.40;99.90;;;;;;10472948;28;20212;-80
2023/10/30 11:29:23;;;;;;;2.40;2.00;;;16.40;99.90;;;;;;10486153;28;20671;-79
2023/10/30 11:34:46;;;;;;;1.90;1.80;;;16.50;99.90;;;;;;10476863;28;20330;-81
2023/10/30 11:40:15;;;;;;;3.70;3.50;;;16.50;99.90;;;;;;10464102;28;20225;-80
2023/10/30 11:45:40;;;;;;;2.80;2.60;;;16.50;99.90;;;;;;10466810;28;20239;-81
2023/10/30 11:51:03;;;;;;;2.50;2.40;;;16.40;99.90;;;;;;10465637;28;20235;-81
2023/10/30 11:56:28;;;;;;;2.30;2.20;;;16.40;99.90;;;;;;10480593;28;20229;-81
2023/10/30 12:01:52;;;;;;;3.37;3.07;;;16.30;99.90;;;;;;10461703;28;20196;-81
2023/10/30 12:07:14;;;;;;;2.20;2.10;;;16.30;99.90;;;;;;10531586;28;20215;-81
2023/10/30 12:12:38;;;;;;;3.80;3.40;;;16.30;99.90;;;;;;10507742;28;20204;-81
2023/10/30 12:18:00;;;;;;;2.30;2.20;;;16.20;99.90;;;;;;10520350;28;20250;-80
2023/10/30 12:23:22;;;;;;;2.60;2.40;;;16.30;99.90;;;;;;10477548;28;20274;-81
2023/10/30 12:28:46;;;;;;;2.40;2.00;;;16.40;99.90;;;;;;10497145;28;20206;-81
2023/10/30 12:34:09;;;;;;;2.20;1.67;;;16.50;99.90;;;;;;10458290;28;20793;-80
2023/10/30 12:39:31;;;;;;;2.33;2.00;;;16.60;99.90;;;;;;10482360;28;20217;-81
2023/10/30 12:44:55;;;;;;;1.80;1.70;;;16.70;99.90;;;;;;10518902;28;20240;-80
2023/10/30 12:50:18;;;;;;;8.73;2.50;;;16.70;99.90;;;;;;10522491;28;20532;-81
2023/10/30 12:55:41;;;;;;;2.27;2.17;;;16.70;99.90;;;;;;10519179;28;20609;-80
2023/10/30 13:01:05;;;;;;;1.90;1.80;;;16.80;99.90;;;;;;10524187;28;20189;-81
2023/10/30 13:06:27;;;;;;;1.70;1.60;;;16.80;99.90;;;;;;10501222;28;20209;-80
2023/10/30 13:11:49;;;;;;;2.00;1.90;;;16.80;99.90;;;;;;10478064;28;20205;-81
2023/10/30 13:17:12;;;;;;;2.40;2.20;;;16.80;99.90;;;;;;10474649;28;20232;-80
2023/10/30 13:22:35;;;;;;;2.50;2.30;;;16.80;99.90;;;;;;10474385;28;20202;-80
2023/10/30 13:27:57;;;;;;;3.53;2.70;;;16.80;99.90;;;;;;10473817;28;20698;-81
2023/10/30 13:33:21;;;;;;;3.13;2.47;;;16.70;99.90;;;;;;10471993;28;20693;-80
2023/10/30 13:38:44;;;;;;;4.00;3.70;;;16.70;99.90;;;;;;10466479;28;20229;-81
2023/10/30 13:44:06;;;;;;;3.23;3.03;;;16.70;99.90;;;;;;10470044;28;20291;-79
2023/10/30 13:49:31;;;;;;;2.70;2.40;;;16.60;99.90;;;;;;10473258;28;20219;-80
2023/10/30 13:54:54;;;;;;;3.87;3.60;;;16.60;99.90;;;;;;10474451;28;20221;-81
2023/10/30 14:00:17;;;;;;;3.50;3.20;;;16.50;99.90;;;;;;10482310;28;20232;-81
2023/10/30 14:05:40;;;;;;;3.00;2.80;;;16.50;99.90;;;;;;10476329;28;20217;-81
2023/10/30 14:11:03;;;;;;;3.70;3.40;;;16.40;99.90;;;;;;10484141;28;20208;-81
2023/10/30 14:16:25;;;;;;;3.13;2.93;;;16.40;99.90;;;;;;10484176;28;20219;-80
2023/10/30 14:21:48;;;;;;;3.07;2.87;;;16.50;99.90;;;;;;10469019;28;20197;-80
2023/10/30 14:27:11;;;;;;;3.40;2.93;;;16.40;99.90;;;;;;10482153;28;20209;-81
2023/10/30 14:32:33;;;;;;;3.77;3.47;;;16.50;99.90;;;;;;10472953;28;20209;-81
2023/10/30 14:37:56;;;;;;;3.67;3.37;;;16.50;99.90;;;;;;10477232;28;20233;-81
2023/10/30 14:43:19;;;;;;;3.77;3.47;;;16.50;99.90;;;;;;10474724;28;20229;-81
2023/10/30 14:48:41;;;;;;;8.17;4.63;;;16.40;99.90;;;;;;10486211;28;20193;-81
2023/10/30 14:54:04;;;;;;;11.07;4.90;;;16.30;99.90;;;;;;10476768;28;20389;-80
2023/10/30 14:59:27;;;;;;;4.63;3.90;;;16.20;99.90;;;;;;10498387;28;20228;-80
2023/10/30 15:04:49;;;;;;;3.87;3.57;;;16.20;99.90;;;;;;10461573;28;20328;-79
2023/10/30 15:10:12;;;;;;;6.90;3.70;;;16.20;99.90;;;;;;10457458;28;20583;-81
2023/10/30 15:15:35;;;;;;;3.93;3.27;;;16.20;99.90;;;;;;10504329;28;20213;-79
2023/10/30 15:20:57;;;;;;;3.43;3.10;;;16.10;99.90;;;;;;10466336;28;20221;-80
2023/10/30 15:26:20;;;;;;;4.07;3.40;;;16.10;99.90;;;;;;10480337;28;20546;-81
2023/10/30 15:31:43;;;;;;;3.50;3.20;;;16.10;99.90;;;;;;10468618;28;20201;-81
2023/10/30 15:37:05;;;;;;;3.70;2.60;;;16.00;99.90;;;;;;10485223;28;20271;-81
2023/10/30 15:42:29;;;;;;;3.20;3.03;;;15.90;99.90;;;;;;10470732;28;20216;-81
2023/10/30 15:47:51;;;;;;;3.40;3.10;;;15.90;99.90;;;;;;10484610;28;20198;-80
2023/10/30 15:53:13;;;;;;;4.20;3.90;;;15.90;99.90;;;;;;10471738;28;20213;-81
2023/10/30 15:58:37;;;;;;;4.80;4.40;;;15.80;99.90;;;;;;10476993;28;20224;-81
2023/10/30 16:03:59;;;;;;;4.00;3.70;;;15.80;99.90;;;;;;10477633;28;20221;-80
2023/10/30 16:09:21;;;;;;;4.70;4.07;;;15.70;99.90;;;;;;10453117;28;20197;-80
2023/10/30 16:14:45;;;;;;;3.60;3.30;;;15.70;99.90;;;;;;10482217;28;20232;-81
2023/10/30 16:20:08;;;;;;;4.23;3.70;;;15.70;99.90;;;;;;10475559;28;20225;-81
2023/10/30 16:25:30;;;;;;;3.43;3.33;;;15.60;99.90;;;;;;10475017;28;20246;-80
2023/10/30 16:30:54;;;;;;;4.27;4.00;;;15.60;99.90;;;;;;10479476;28;20200;-80
2023/10/30 16:36:16;;;;;;;5.50;5.10;;;15.50;99.90;;;;;;10483341;28;20290;-81
2023/10/30 16:41:39;;;;;;;5.97;5.57;;;15.50;99.90;;;;;;10524427;28;20218;-81
2023/10/30 16:47:02;;;;;;;5.77;5.30;;;15.40;99.90;;;;;;10528472;23;20247;-76
2023/10/30 16:52:24;;;;;;;5.70;5.30;;;15.40;99.90;;;;;;10515898;28;20674;-76
2023/10/30 16:57:47;;;;;;;7.30;6.70;;;15.30;99.90;;;;;;10521995;28;20259;-76
2023/10/30 17:03:10;;;;;;;16.40;11.63;;;15.30;99.90;;;;;;10531002;28;20211;-76
2023/10/30 17:08:32;;;;;;;7.97;7.17;;;15.20;99.90;;;;;;10521355;28;20199;-76
2023/10/30 17:13:55;;;;;;;5.30;4.77;;;15.10;99.90;;;;;;10533006;28;20606;-76
2023/10/30 17:19:18;;;;;;;5.00;4.70;;;15.10;99.90;;;;;;10531695;28;20775;-76
2023/10/30 17:24:41;;;;;;;5.47;4.97;;;15.10;99.90;;;;;;10527698;28;20221;-76
2023/10/30 17:30:04;;;;;;;4.33;4.13;;;15.10;99.90;;;;;;10510466;28;20216;-76
2023/10/30 17:35:28;;;;;;;4.43;4.13;;;15.10;99.90;;;;;;10529126;28;20223;-76
2023/10/30 17:40:51;;;;;;;4.90;4.60;;;15.00;99.90;;;;;;10505491;28;20326;-76
2023/10/30 17:46:13;;;;;;;4.37;3.97;;;15.00;99.90;;;;;;10523803;28;20236;-76
2023/10/30 17:51:37;;;;;;;12.93;8.13;;;15.00;99.90;;;;;;10507050;28;20662;-76
2023/10/30 17:56:59;;;;;;;5.43;4.93;;;15.00;99.90;;;;;;10509388;28;20219;-76
2023/10/30 18:02:21;;;;;;;4.97;4.67;;;14.90;99.90;;;;;;10496286;28;20200;-76
2023/10/30 18:07:44;;;;;;;5.70;5.30;;;14.90;99.90;;;;;;10530776;28;20705;-76
2023/10/30 18:13:07;;;;;;;6.93;5.80;;;14.90;99.90;;;;;;10508995;28;20200;-78
2023/10/30 18:18:29;;;;;;;5.87;5.20;;;15.00;99.90;;;;;;10495465;28;20208;-78
2023/10/30 18:23:52;;;;;;;8.47;7.53;;;15.00;99.90;;;;;;10507308;28;20227;-78
2023/10/30 18:29:15;;;;;;;7.63;6.23;;;15.00;99.90;;;;;;10510693;28;20621;-77
2023/10/30 18:34:37;;;;;;;12.83;11.83;;;14.90;99.90;;;;;;10500002;28;20225;-77
2023/10/30 18:40:03;;;;;;;20.43;16.67;;;14.80;99.90;;;;;;10522143;28;20208;-77
2023/10/30 18:45:27;;;;;;;16.20;14.90;;;14.70;99.90;;;;;;10507072;28;20715;-77
2023/10/30 18:50:50;;;;;;;14.10;13.10;;;14.60;99.90;;;;;;10513950;28;20319;-76
2023/10/30 18:56:14;;;;;;;12.50;11.77;;;14.50;99.90;;;;;;10511573;28;20295;-77
2023/10/30 19:01:36;;;;;;;13.30;12.20;;;14.40;99.90;;;;;;10518653;28;20224;-77
2023/10/30 19:06:59;;;;;;;14.63;13.40;;;14.40;99.90;;;;;;10517397;28;20701;-77
2023/10/30 19:12:22;;;;;;;14.73;13.40;;;14.30;99.90;;;;;;10482196;28;20204;-77
2023/10/30 19:17:44;;;;;;;16.73;15.10;;;14.30;99.90;;;;;;10493182;28;20228;-78
2023/10/30 19:23:07;;;;;;;13.13;12.23;;;14.20;99.90;;;;;;10501785;28;20200;-76
2023/10/30 19:28:30;;;;;;;13.20;12.50;;;14.10;99.90;;;;;;10505058;28;20207;-77
2023/10/30 19:33:52;;;;;;;13.50;12.70;;;14.10;99.90;;;;;;10551060;28;20223;-78
2023/10/30 19:39:17;;;;;;;8.53;7.93;;;14.10;99.90;;;;;;10521650;28;20231;-77
2023/10/30 19:44:40;;;;;;;12.37;11.60;;;14.10;99.90;;;;;;10487981;28;20224;-77
2023/10/30 19:50:03;;;;;;;10.67;10.07;;;14.00;99.90;;;;;;10529946;28;20193;-77
2023/10/30 19:55:25;;;;;;;8.50;7.90;;;14.00;99.90;;;;;;10500414;28;20208;-77
2023/10/30 20:00:48;;;;;;;11.17;10.67;;;14.00;99.90;;;;;;10536792;28;20232;-77
2023/10/30 20:06:11;;;;;;;9.50;8.70;;;14.00;99.90;;;;;;10503448;28;20231;-77
2023/10/30 20:11:34;;;;;;;10.63;10.13;;;14.00;99.90;;;;;;10528257;28;20204;-77
2023/10/30 20:16:57;;;;;;;11.40;10.80;;;13.90;99.90;;;;;;10511949;28;20673;-77
2023/10/30 20:22:19;;;;;;;11.10;10.50;;;13.80;99.90;;;;;;10491778;28;20255;-77
2023/10/30 20:27:42;;;;;;;10.30;9.90;;;13.80;99.90;;;;;;10517174;28;20212;-77
2023/10/30 20:33:06;;;;;;;10.40;9.77;;;13.70;99.90;;;;;;10514176;28;20220;-76
2023/10/30 20:38:28;;;;;;;9.73;9.33;;;13.70;99.90;;;;;;10522381;28;20769;-77
2023/10/30 20:43:50;;;;;;;10.40;10.00;;;13.70;99.90;;;;;;10495818;28;20229;-77
2023/10/30 20:49:14;;;;;;;8.90;8.50;;;13.60;99.90;;;;;;10528652;28;20183;-77
2023/10/30 20:54:37;;;;;;;10.10;9.60;;;13.60;99.90;;;;;;10527246;28;20228;-77
2023/10/30 20:59:59;;;;;;;9.57;9.17;;;13.60;99.90;;;;;;10503659;28;20244;-77
2023/10/30 21:05:25;;;;;;;9.23;8.93;;;13.60;99.90;;;;;;10513447;28;20216;-76
2023/10/30 21:10:57;;;;;;;9.50;9.00;;;13.60;99.90;;;;;;10493079;28;20326;-76
2023/10/30 21:16:19;;;;;;;9.53;8.93;;;13.60;99.90;;;;;;10509477;28;20228;-76
2023/10/30 21:21:54;;;;;;;8.70;8.40;;;13.60;99.90;;;;;;10499061;28;20845;-76
2023/10/30 21:27:17;;;;;;;8.80;8.50;;;13.60;99.90;;;;;;10515476;28;20718;-77
2023/10/30 21:32:39;;;;;;;9.33;8.93;;;13.50;99.90;;;;;;10511255;28;20224;-76
2023/10/30 21:38:03;;;;;;;9.80;9.30;;;13.50;99.90;;;;;;10513710;28;20207;-76
2023/10/30 21:43:26;;;;;;;10.10;9.70;;;13.50;99.90;;;;;;10496881;28;20231;-76
2023/10/30 21:48:48;;;;;;;10.10;9.70;;;13.40;99.90;;;;;;10514241;28;20207;-76
2023/10/30 21:54:12;;;;;;;9.67;9.30;;;13.40;99.90;;;;;;10513301;28;20212;-76
2023/10/30 21:59:34;;;;;;;9.73;9.33;;;13.40;99.90;;;;;;10512282;28;20204;-77
2023/10/30 22:04:56;;;;;;;9.17;8.87;;;13.40;99.90;;;;;;10513449;28;20224;-77
2023/10/30 22:10:21;;;;;;;9.27;8.77;;;13.40;99.90;;;;;;10511855;28;20192;-77
2023/10/30 22:15:45;;;;;;;9.37;8.97;;;13.30;99.90;;;;;;10512651;28;20649;-76
2023/10/30 22:21:07;;;;;;;9.77;9.27;;;13.30;99.90;;;;;;10512304;28;20213;-76
2023/10/30 22:26:33;;;;;;;8.60;8.10;;;13.30;99.90;;;;;;10511144;28;20235;-76
2023/10/30 22:31:55;;;;;;;9.30;8.90;;;13.30;99.90;;;;;;10510571;28;20201;-76
2023/10/30 22:37:17;;;;;;;9.00;8.70;;;13.40;99.90;;;;;;10510406;28;20700;-76
2023/10/30 22:42:40;;;;;;;8.70;8.40;;;13.30;99.90;;;;;;10509631;28;20566;-76
2023/10/30 22:48:03;;;;;;;8.90;8.60;;;13.30;99.90;;;;;;10508350;28;20208;-77
2023/10/30 22:53:25;;;;;;;8.43;7.83;;;13.20;99.90;;;;;;10505661;28;20227;-77
2023/10/30 22:58:48;;;;;;;8.30;8.00;;;13.20;99.90;;;;;;10523530;28;20600;-77
2023/10/30 23:04:11;;;;;;;6.90;6.60;;;13.10;99.90;;;;;;10494189;28;20217;-77
2023/10/30 23:09:33;;;;;;;8.13;7.73;;;13.10;99.90;;;;;;10496060;28;20330;-76
2023/10/30 23:14:57;;;;;;;7.53;7.30;;;13.00;99.90;;;;;;10515541;28;20686;-77
2023/10/30 23:20:20;;;;;;;6.97;6.77;;;13.00;99.90;;;;;;10505952;28;20228;-77
2023/10/30 23:25:43;;;;;;;8.27;7.97;;;13.00;99.90;;;;;;10504556;28;20301;-77
2023/10/30 23:31:06;;;;;;;8.63;8.17;;;13.00;99.90;;;;;;10512046;28;20289;-77
2023/10/30 23:36:28;;;;;;;7.80;7.50;;;13.00;99.90;;;;;;10490685;28;20221;-77
2023/10/30 23:41:51;;;;;;;7.97;7.67;;;13.00;99.90;;;;;;10507310;28;20248;-77
2023/10/30 23:47:14;;;;;;;8.37;7.97;;;13.00;99.90;;;;;;10518487;28;20729;-76
2023/10/30 23:52:36;;;;;;;8.10;7.80;;;12.90;99.90;;;;;;10525821;28;20566;-77
2023/10/30 23:57:59;;;;;;;7.93;7.63;;;13.00;99.90;;;;;;10494601;28;20204;-77
